Atomic City, Idaho
Current Conditions -  °F | °C
As of 12:53 AM on Saturday 25 Oct 2014 (Local Time) from KIDA Reporting Station
Clear Clear  
Wind Chill:   Ceiling: Unl
Heat Index:   Visibility: 10mi
Dew Point: -1°   Wind: 6mph
Humidity: 79%   Direction: 20°NNE
Pressure: 30.1"   Gusts: NA
Location:  43.44°N, 112.81°W
Report Text: KIDA 250653Z AUTO 02005KT 10SM CLR 03/M01 A3010 RMK AO2 SLP180 T00281006 402170022
Loading
Personal Weather Stations






























Interactive Weather Map
Tropical Storm Tracking
New forecast layout! Learn more

10-Day Weather Forecast

Advertisements
Track Severe Weather on mobile